sensor_id;sensor_type;location;lat;lon;timestamp;temperature;humidity
44729;DHT22;30457;53.590;9.922;2023-01-30T00:00:32;7.70;65.50
44729;DHT22;30457;53.590;9.922;2023-01-30T00:04:58;7.70;65.50
44729;DHT22;30457;53.590;9.922;2023-01-30T00:09:23;7.80;65.80
44729;DHT22;30457;53.590;9.922;2023-01-30T00:13:50;7.80;65.70
44729;DHT22;30457;53.590;9.922;2023-01-30T00:18:16;7.80;65.90
44729;DHT22;30457;53.590;9.922;2023-01-30T00:22:41;7.80;66.30
44729;DHT22;30457;53.590;9.922;2023-01-30T00:27:07;7.80;66.00
44729;DHT22;30457;53.590;9.922;2023-01-30T00:31:34;7.90;66.20
44729;DHT22;30457;53.590;9.922;2023-01-30T00:36:00;7.90;66.20
44729;DHT22;30457;53.590;9.922;2023-01-30T00:40:28;7.90;66.10
44729;DHT22;30457;53.590;9.922;2023-01-30T00:44:53;7.90;66.10
44729;DHT22;30457;53.590;9.922;2023-01-30T00:49:38;7.90;67.10
44729;DHT22;30457;53.590;9.922;2023-01-30T00:54:03;7.90;66.50
44729;DHT22;30457;53.590;9.922;2023-01-30T00:58:30;8.00;66.50
44729;DHT22;30457;53.590;9.922;2023-01-30T01:02:55;8.00;67.20
44729;DHT22;30457;53.590;9.922;2023-01-30T01:07:21;8.00;66.60
44729;DHT22;30457;53.590;9.922;2023-01-30T01:11:47;8.00;66.60
44729;DHT22;30457;53.590;9.922;2023-01-30T01:16:13;8.10;66.70
44729;DHT22;30457;53.590;9.922;2023-01-30T01:20:38;8.10;66.60
44729;DHT22;30457;53.590;9.922;2023-01-30T01:25:04;8.10;66.70
44729;DHT22;30457;53.590;9.922;2023-01-30T01:29:31;8.20;66.60
44729;DHT22;30457;53.590;9.922;2023-01-30T01:33:56;8.20;66.50
44729;DHT22;30457;53.590;9.922;2023-01-30T01:38:24;8.30;66.40
44729;DHT22;30457;53.590;9.922;2023-01-30T01:42:50;8.30;66.80
44729;DHT22;30457;53.590;9.922;2023-01-30T01:47:15;8.30;66.60
44729;DHT22;30457;53.590;9.922;2023-01-30T01:51:55;8.40;67.00
44729;DHT22;30457;53.590;9.922;2023-01-30T01:56:24;8.40;67.10
44729;DHT22;30457;53.590;9.922;2023-01-30T02:00:50;8.40;67.10
44729;DHT22;30457;53.590;9.922;2023-01-30T02:05:18;8.40;67.00
44729;DHT22;30457;53.590;9.922;2023-01-30T02:09:44;8.50;67.50
44729;DHT22;30457;53.590;9.922;2023-01-30T02:14:11;8.50;67.60
44729;DHT22;30457;53.590;9.922;2023-01-30T02:18:40;8.50;67.80
44729;DHT22;30457;53.590;9.922;2023-01-30T02:28:33;8.50;68.00
44729;DHT22;30457;53.590;9.922;2023-01-30T02:47:03;8.60;68.30
44729;DHT22;30457;53.590;9.922;2023-01-30T02:51:36;8.60;67.90
44729;DHT22;30457;53.590;9.922;2023-01-30T02:56:03;8.70;68.20
44729;DHT22;30457;53.590;9.922;2023-01-30T03:10:14;8.80;68.00
44729;DHT22;30457;53.590;9.922;2023-01-30T03:19:19;8.90;68.00
44729;DHT22;30457;53.590;9.922;2023-01-30T03:23:46;8.90;68.00
44729;DHT22;30457;53.590;9.922;2023-01-30T03:28:15;9.00;68.20
44729;DHT22;30457;53.590;9.922;2023-01-30T03:32:42;9.00;68.00
44729;DHT22;30457;53.590;9.922;2023-01-30T03:37:08;9.10;68.60
44729;DHT22;30457;53.590;9.922;2023-01-30T03:41:35;9.10;68.60
44729;DHT22;30457;53.590;9.922;2023-01-30T03:46:01;9.20;68.40
44729;DHT22;30457;53.590;9.922;2023-01-30T03:50:27;9.20;68.30
44729;DHT22;30457;53.590;9.922;2023-01-30T03:54:53;9.30;68.40
44729;DHT22;30457;53.590;9.922;2023-01-30T03:59:19;9.30;68.40
44729;DHT22;30457;53.590;9.922;2023-01-30T04:03:51;9.30;68.40
44729;DHT22;30457;53.590;9.922;2023-01-30T04:08:17;9.40;68.60
44729;DHT22;30457;53.590;9.922;2023-01-30T04:12:43;9.40;68.60
44729;DHT22;30457;53.590;9.922;2023-01-30T04:17:10;9.40;68.80
44729;DHT22;30457;53.590;9.922;2023-01-30T04:22:07;9.50;68.60
44729;DHT22;30457;53.590;9.922;2023-01-30T04:26:34;9.50;69.10
44729;DHT22;30457;53.590;9.922;2023-01-30T04:31:01;9.50;69.00
44729;DHT22;30457;53.590;9.922;2023-01-30T04:35:38;9.60;68.80
44729;DHT22;30457;53.590;9.922;2023-01-30T04:40:05;9.60;68.70
44729;DHT22;30457;53.590;9.922;2023-01-30T04:44:31;9.60;68.70
44729;DHT22;30457;53.590;9.922;2023-01-30T04:49:17;9.70;68.70
44729;DHT22;30457;53.590;9.922;2023-01-30T04:53:43;9.70;68.40
44729;DHT22;30457;53.590;9.922;2023-01-30T04:58:09;9.70;68.20
44729;DHT22;30457;53.590;9.922;2023-01-30T05:02:35;9.80;68.20
44729;DHT22;30457;53.590;9.922;2023-01-30T05:07:00;9.70;67.90
44729;DHT22;30457;53.590;9.922;2023-01-30T05:11:27;9.80;67.60
44729;DHT22;30457;53.590;9.922;2023-01-30T05:15:54;9.70;67.40
44729;DHT22;30457;53.590;9.922;2023-01-30T05:20:19;9.80;67.30
44729;DHT22;30457;53.590;9.922;2023-01-30T05:24:45;9.80;67.10
44729;DHT22;30457;53.590;9.922;2023-01-30T05:29:10;9.80;66.80
44729;DHT22;30457;53.590;9.922;2023-01-30T05:33:37;9.80;67.50
44729;DHT22;30457;53.590;9.922;2023-01-30T05:38:02;9.80;66.50
44729;DHT22;30457;53.590;9.922;2023-01-30T05:42:28;9.70;66.20
44729;DHT22;30457;53.590;9.922;2023-01-30T05:46:54;9.70;66.10
44729;DHT22;30457;53.590;9.922;2023-01-30T05:51:22;9.70;65.90
44729;DHT22;30457;53.590;9.922;2023-01-30T05:55:55;9.70;65.70
44729;DHT22;30457;53.590;9.922;2023-01-30T06:00:21;9.60;65.40
44729;DHT22;30457;53.590;9.922;2023-01-30T06:04:47;9.60;65.00
44729;DHT22;30457;53.590;9.922;2023-01-30T06:09:12;9.60;64.90
44729;DHT22;30457;53.590;9.922;2023-01-30T06:13:38;9.50;64.80
44729;DHT22;30457;53.590;9.922;2023-01-30T06:18:04;9.50;64.40
44729;DHT22;30457;53.590;9.922;2023-01-30T06:22:29;9.50;64.30
44729;DHT22;30457;53.590;9.922;2023-01-30T06:26:55;9.40;64.30
44729;DHT22;30457;53.590;9.922;2023-01-30T06:31:20;9.40;64.30
44729;DHT22;30457;53.590;9.922;2023-01-30T06:35:50;9.30;64.20
44729;DHT22;30457;53.590;9.922;2023-01-30T06:40:16;9.30;64.30
44729;DHT22;30457;53.590;9.922;2023-01-30T06:44:42;9.20;64.30
44729;DHT22;30457;53.590;9.922;2023-01-30T06:49:07;9.20;64.40
44729;DHT22;30457;53.590;9.922;2023-01-30T06:53:33;9.10;64.50
44729;DHT22;30457;53.590;9.922;2023-01-30T06:58:03;9.10;64.60
44729;DHT22;30457;53.590;9.922;2023-01-30T07:02:29;9.10;64.50
44729;DHT22;30457;53.590;9.922;2023-01-30T07:06:58;9.10;64.50
44729;DHT22;30457;53.590;9.922;2023-01-30T07:11:25;9.00;64.40
44729;DHT22;30457;53.590;9.922;2023-01-30T07:15:50;9.00;64.40
44729;DHT22;30457;53.590;9.922;2023-01-30T07:20:16;9.00;64.50
44729;DHT22;30457;53.590;9.922;2023-01-30T07:24:42;9.00;65.00
44729;DHT22;30457;53.590;9.922;2023-01-30T07:29:07;9.00;64.40
44729;DHT22;30457;53.590;9.922;2023-01-30T07:33:33;9.00;64.30
44729;DHT22;30457;53.590;9.922;2023-01-30T07:37:58;9.00;64.20
44729;DHT22;30457;53.590;9.922;2023-01-30T07:42:24;9.00;64.20
44729;DHT22;30457;53.590;9.922;2023-01-30T07:46:51;9.00;64.20
44729;DHT22;30457;53.590;9.922;2023-01-30T07:51:17;9.00;64.40
44729;DHT22;30457;53.590;9.922;2023-01-30T07:55:42;9.00;64.70
44729;DHT22;30457;53.590;9.922;2023-01-30T08:00:09;9.00;64.90
44729;DHT22;30457;53.590;9.922;2023-01-30T08:04:35;9.00;64.90
44729;DHT22;30457;53.590;9.922;2023-01-30T08:09:00;9.10;64.90
44729;DHT22;30457;53.590;9.922;2023-01-30T08:13:26;9.10;64.70
44729;DHT22;30457;53.590;9.922;2023-01-30T08:17:53;9.10;64.60
44729;DHT22;30457;53.590;9.922;2023-01-30T08:22:19;9.20;64.50
44729;DHT22;30457;53.590;9.922;2023-01-30T08:26:47;9.20;64.10
44729;DHT22;30457;53.590;9.922;2023-01-30T08:31:14;9.20;63.70
44729;DHT22;30457;53.590;9.922;2023-01-30T08:35:40;9.20;63.80
44729;DHT22;30457;53.590;9.922;2023-01-30T08:40:07;9.20;63.90
44729;DHT22;30457;53.590;9.922;2023-01-30T08:44:33;9.30;63.80
44729;DHT22;30457;53.590;9.922;2023-01-30T08:48:58;9.30;63.60
44729;DHT22;30457;53.590;9.922;2023-01-30T08:53:24;9.40;63.90
44729;DHT22;30457;53.590;9.922;2023-01-30T08:57:49;9.40;63.50
44729;DHT22;30457;53.590;9.922;2023-01-30T09:02:15;9.40;63.40
44729;DHT22;30457;53.590;9.922;2023-01-30T09:06:41;9.40;63.70
44729;DHT22;30457;53.590;9.922;2023-01-30T09:11:07;9.50;63.60
44729;DHT22;30457;53.590;9.922;2023-01-30T09:15:34;9.50;63.50
44729;DHT22;30457;53.590;9.922;2023-01-30T09:19:59;9.60;62.80
44729;DHT22;30457;53.590;9.922;2023-01-30T09:24:25;9.60;62.00
44729;DHT22;30457;53.590;9.922;2023-01-30T09:28:52;9.60;62.20
44729;DHT22;30457;53.590;9.922;2023-01-30T09:33:17;9.60;61.60
44729;DHT22;30457;53.590;9.922;2023-01-30T09:37:48;9.70;62.20
44729;DHT22;30457;53.590;9.922;2023-01-30T09:47:10;9.80;62.40
44729;DHT22;30457;53.590;9.922;2023-01-30T09:52:21;9.90;62.40
44729;DHT22;30457;53.590;9.922;2023-01-30T09:57:26;10.00;62.10
44729;DHT22;30457;53.590;9.922;2023-01-30T10:07:03;10.10;61.30
44729;DHT22;30457;53.590;9.922;2023-01-30T10:12:16;10.10;61.70
44729;DHT22;30457;53.590;9.922;2023-01-30T10:17:21;10.10;61.70
44729;DHT22;30457;53.590;9.922;2023-01-30T10:21:55;10.00;61.30
44729;DHT22;30457;53.590;9.922;2023-01-30T10:26:25;9.80;61.00
44729;DHT22;30457;53.590;9.922;2023-01-30T10:30:59;9.60;60.60
44729;DHT22;30457;53.590;9.922;2023-01-30T10:35:30;9.50;61.00
44729;DHT22;30457;53.590;9.922;2023-01-30T10:40:15;9.30;61.40
44729;DHT22;30457;53.590;9.922;2023-01-30T10:44:43;9.30;62.00
44729;DHT22;30457;53.590;9.922;2023-01-30T10:49:35;9.20;62.80
44729;DHT22;30457;53.590;9.922;2023-01-30T11:03:39;9.30;63.40
44729;DHT22;30457;53.590;9.922;2023-01-30T11:08:26;9.20;63.20
44729;DHT22;30457;53.590;9.922;2023-01-30T11:12:56;9.10;63.00
44729;DHT22;30457;53.590;9.922;2023-01-30T11:17:35;9.00;63.20
44729;DHT22;30457;53.590;9.922;2023-01-30T11:22:03;8.90;63.50
44729;DHT22;30457;53.590;9.922;2023-01-30T11:26:32;8.80;63.80
44729;DHT22;30457;53.590;9.922;2023-01-30T11:30:59;8.80;63.90
44729;DHT22;30457;53.590;9.922;2023-01-30T11:35:27;8.80;64.20
44729;DHT22;30457;53.590;9.922;2023-01-30T11:39:55;8.70;64.20
44729;DHT22;30457;53.590;9.922;2023-01-30T11:44:31;8.70;64.30
44729;DHT22;30457;53.590;9.922;2023-01-30T11:49:04;8.70;64.40
44729;DHT22;30457;53.590;9.922;2023-01-30T11:53:46;8.60;64.60
44729;DHT22;30457;53.590;9.922;2023-01-30T11:58:13;8.70;64.80
44729;DHT22;30457;53.590;9.922;2023-01-30T12:02:40;8.70;64.60
44729;DHT22;30457;53.590;9.922;2023-01-30T12:11:41;8.90;65.40
44729;DHT22;30457;53.590;9.922;2023-01-30T12:16:23;9.00;65.50
44729;DHT22;30457;53.590;9.922;2023-01-30T12:20:58;9.10;65.80
44729;DHT22;30457;53.590;9.922;2023-01-30T12:25:36;9.20;65.50
44729;DHT22;30457;53.590;9.922;2023-01-30T12:30:31;9.20;65.00
44729;DHT22;30457;53.590;9.922;2023-01-30T12:34:58;9.30;64.10
44729;DHT22;30457;53.590;9.922;2023-01-30T12:44:38;9.30;64.70
44729;DHT22;30457;53.590;9.922;2023-01-30T12:59:10;9.30;64.20
44729;DHT22;30457;53.590;9.922;2023-01-30T13:03:51;9.40;64.20
44729;DHT22;30457;53.590;9.922;2023-01-30T13:08:34;9.40;64.20
44729;DHT22;30457;53.590;9.922;2023-01-30T13:13:08;9.40;64.30
44729;DHT22;30457;53.590;9.922;2023-01-30T13:17:51;9.50;64.20
44729;DHT22;30457;53.590;9.922;2023-01-30T13:22:32;9.50;63.90
44729;DHT22;30457;53.590;9.922;2023-01-30T13:27:00;9.60;64.10
44729;DHT22;30457;53.590;9.922;2023-01-30T13:31:30;9.70;63.20
44729;DHT22;30457;53.590;9.922;2023-01-30T13:40:43;9.80;62.20
44729;DHT22;30457;53.590;9.922;2023-01-30T13:45:24;9.80;62.70
44729;DHT22;30457;53.590;9.922;2023-01-30T13:50:18;9.80;62.50
44729;DHT22;30457;53.590;9.922;2023-01-30T13:55:04;9.80;62.20
44729;DHT22;30457;53.590;9.922;2023-01-30T14:00:04;9.80;61.70
44729;DHT22;30457;53.590;9.922;2023-01-30T14:09:19;9.90;62.00
44729;DHT22;30457;53.590;9.922;2023-01-30T14:13:51;9.90;62.10
44729;DHT22;30457;53.590;9.922;2023-01-30T14:18:23;9.90;62.10
44729;DHT22;30457;53.590;9.922;2023-01-30T14:22:53;10.00;63.30
44729;DHT22;30457;53.590;9.922;2023-01-30T14:27:25;10.00;62.50
44729;DHT22;30457;53.590;9.922;2023-01-30T14:31:56;10.00;62.30
44729;DHT22;30457;53.590;9.922;2023-01-30T14:45:46;10.10;62.30
44729;DHT22;30457;53.590;9.922;2023-01-30T14:50:20;10.10;61.30
44729;DHT22;30457;53.590;9.922;2023-01-30T14:54:48;10.10;61.30
44729;DHT22;30457;53.590;9.922;2023-01-30T15:03:45;10.20;61.20
44729;DHT22;30457;53.590;9.922;2023-01-30T15:08:20;10.30;60.30
44729;DHT22;30457;53.590;9.922;2023-01-30T15:18:01;10.30;60.20
44729;DHT22;30457;53.590;9.922;2023-01-30T15:27:27;10.30;59.60
44729;DHT22;30457;53.590;9.922;2023-01-30T15:32:02;10.30;59.00
44729;DHT22;30457;53.590;9.922;2023-01-30T15:36:38;10.30;59.00
44729;DHT22;30457;53.590;9.922;2023-01-30T15:41:04;10.30;58.90
44729;DHT22;30457;53.590;9.922;2023-01-30T15:46:08;10.30;58.70
44729;DHT22;30457;53.590;9.922;2023-01-30T15:50:35;10.30;58.80
44729;DHT22;30457;53.590;9.922;2023-01-30T15:55:01;10.30;58.50
44729;DHT22;30457;53.590;9.922;2023-01-30T15:59:34;10.20;58.80
44729;DHT22;30457;53.590;9.922;2023-01-30T16:04:00;10.20;58.50
44729;DHT22;30457;53.590;9.922;2023-01-30T16:08:35;10.20;58.70
44729;DHT22;30457;53.590;9.922;2023-01-30T16:13:02;10.20;58.80
44729;DHT22;30457;53.590;9.922;2023-01-30T16:17:29;10.10;58.90
44729;DHT22;30457;53.590;9.922;2023-01-30T16:21:59;10.10;59.00
44729;DHT22;30457;53.590;9.922;2023-01-30T16:26:25;10.10;59.00
44729;DHT22;30457;53.590;9.922;2023-01-30T16:31:02;10.10;59.10
44729;DHT22;30457;53.590;9.922;2023-01-30T16:35:30;10.10;59.10
44729;DHT22;30457;53.590;9.922;2023-01-30T16:40:15;10.00;59.20
44729;DHT22;30457;53.590;9.922;2023-01-30T16:44:43;10.00;59.20
44729;DHT22;30457;53.590;9.922;2023-01-30T16:54:01;10.00;58.70
44729;DHT22;30457;53.590;9.922;2023-01-30T16:58:30;9.90;58.60
44729;DHT22;30457;53.590;9.922;2023-01-30T17:03:17;9.90;58.70
44729;DHT22;30457;53.590;9.922;2023-01-30T17:07:44;9.80;58.70
44729;DHT22;30457;53.590;9.922;2023-01-30T17:21:40;9.70;58.20
44729;DHT22;30457;53.590;9.922;2023-01-30T17:26:06;9.70;58.50
44729;DHT22;30457;53.590;9.922;2023-01-30T17:30:32;9.70;58.60
44729;DHT22;30457;53.590;9.922;2023-01-30T17:34:58;9.70;58.80
44729;DHT22;30457;53.590;9.922;2023-01-30T17:39:23;9.70;58.70
44729;DHT22;30457;53.590;9.922;2023-01-30T17:43:53;9.60;58.50
44729;DHT22;30457;53.590;9.922;2023-01-30T17:48:18;9.60;58.20
44729;DHT22;30457;53.590;9.922;2023-01-30T17:52:44;9.60;58.60
44729;DHT22;30457;53.590;9.922;2023-01-30T17:57:11;9.50;58.20
44729;DHT22;30457;53.590;9.922;2023-01-30T18:01:44;9.50;57.90
44729;DHT22;30457;53.590;9.922;2023-01-30T18:06:14;9.50;57.90
44729;DHT22;30457;53.590;9.922;2023-01-30T18:10:40;9.40;57.60
44729;DHT22;30457;53.590;9.922;2023-01-30T18:15:06;9.40;58.10
44729;DHT22;30457;53.590;9.922;2023-01-30T18:19:32;9.40;58.20
44729;DHT22;30457;53.590;9.922;2023-01-30T18:23:57;9.40;58.30
44729;DHT22;30457;53.590;9.922;2023-01-30T18:28:23;9.40;58.10
44729;DHT22;30457;53.590;9.922;2023-01-30T18:32:48;9.40;57.90
44729;DHT22;30457;53.590;9.922;2023-01-30T18:37:14;9.30;57.80
44729;DHT22;30457;53.590;9.922;2023-01-30T18:41:39;9.30;58.00
44729;DHT22;30457;53.590;9.922;2023-01-30T18:46:09;9.30;57.80
44729;DHT22;30457;53.590;9.922;2023-01-30T18:50:35;9.20;57.70
44729;DHT22;30457;53.590;9.922;2023-01-30T18:55:04;9.20;57.70
44729;DHT22;30457;53.590;9.922;2023-01-30T18:59:29;9.10;57.70
44729;DHT22;30457;53.590;9.922;2023-01-30T19:03:57;9.10;57.30
44729;DHT22;30457;53.590;9.922;2023-01-30T19:08:23;9.10;57.60
44729;DHT22;30457;53.590;9.922;2023-01-30T19:12:50;9.10;57.00
44729;DHT22;30457;53.590;9.922;2023-01-30T19:17:34;9.00;56.90
44729;DHT22;30457;53.590;9.922;2023-01-30T19:22:00;9.00;56.70
44729;DHT22;30457;53.590;9.922;2023-01-30T19:26:27;9.00;56.80
44729;DHT22;30457;53.590;9.922;2023-01-30T19:30:53;8.90;56.70
44729;DHT22;30457;53.590;9.922;2023-01-30T19:35:18;8.90;56.80
44729;DHT22;30457;53.590;9.922;2023-01-30T19:39:44;8.90;57.20
44729;DHT22;30457;53.590;9.922;2023-01-30T19:44:10;8.90;57.30
44729;DHT22;30457;53.590;9.922;2023-01-30T19:48:42;8.90;57.20
44729;DHT22;30457;53.590;9.922;2023-01-30T19:53:08;8.80;57.40
44729;DHT22;30457;53.590;9.922;2023-01-30T19:57:34;8.80;57.50
44729;DHT22;30457;53.590;9.922;2023-01-30T20:01:59;8.80;57.80
44729;DHT22;30457;53.590;9.922;2023-01-30T20:06:27;8.70;57.80
44729;DHT22;30457;53.590;9.922;2023-01-30T20:11:00;8.70;57.70
44729;DHT22;30457;53.590;9.922;2023-01-30T20:15:26;8.70;57.60
44729;DHT22;30457;53.590;9.922;2023-01-30T20:19:52;8.70;57.80
44729;DHT22;30457;53.590;9.922;2023-01-30T20:24:18;8.70;57.90
44729;DHT22;30457;53.590;9.922;2023-01-30T20:28:43;8.60;58.00
44729;DHT22;30457;53.590;9.922;2023-01-30T20:33:09;8.60;57.90
44729;DHT22;30457;53.590;9.922;2023-01-30T20:37:34;8.60;57.80
44729;DHT22;30457;53.590;9.922;2023-01-30T20:42:00;8.60;57.80
44729;DHT22;30457;53.590;9.922;2023-01-30T20:46:28;8.60;57.70
44729;DHT22;30457;53.590;9.922;2023-01-30T20:50:53;8.60;57.50
44729;DHT22;30457;53.590;9.922;2023-01-30T20:55:19;8.60;57.60
44729;DHT22;30457;53.590;9.922;2023-01-30T20:59:44;8.60;57.50
44729;DHT22;30457;53.590;9.922;2023-01-30T21:04:13;8.50;57.30
44729;DHT22;30457;53.590;9.922;2023-01-30T21:08:39;8.50;57.60
44729;DHT22;30457;53.590;9.922;2023-01-30T21:13:06;8.50;57.40
44729;DHT22;30457;53.590;9.922;2023-01-30T21:17:31;8.50;57.30
44729;DHT22;30457;53.590;9.922;2023-01-30T21:21:57;8.50;57.00
44729;DHT22;30457;53.590;9.922;2023-01-30T21:26:25;8.40;57.00
44729;DHT22;30457;53.590;9.922;2023-01-30T21:30:51;8.40;57.30
44729;DHT22;30457;53.590;9.922;2023-01-30T21:35:17;8.30;57.30
44729;DHT22;30457;53.590;9.922;2023-01-30T21:39:42;8.30;57.40
44729;DHT22;30457;53.590;9.922;2023-01-30T21:44:29;8.30;57.30
44729;DHT22;30457;53.590;9.922;2023-01-30T21:48:55;8.20;57.50
44729;DHT22;30457;53.590;9.922;2023-01-30T21:53:21;8.20;57.60
44729;DHT22;30457;53.590;9.922;2023-01-30T21:57:47;8.20;57.60
44729;DHT22;30457;53.590;9.922;2023-01-30T22:02:12;8.20;57.70
44729;DHT22;30457;53.590;9.922;2023-01-30T22:06:38;8.20;57.80
44729;DHT22;30457;53.590;9.922;2023-01-30T22:11:12;8.20;57.90
44729;DHT22;30457;53.590;9.922;2023-01-30T22:15:38;8.20;58.10
44729;DHT22;30457;53.590;9.922;2023-01-30T22:20:04;8.20;58.20
44729;DHT22;30457;53.590;9.922;2023-01-30T22:24:30;8.20;59.00
44729;DHT22;30457;53.590;9.922;2023-01-30T22:28:57;8.30;58.30
44729;DHT22;30457;53.590;9.922;2023-01-30T22:33:23;8.30;58.10
44729;DHT22;30457;53.590;9.922;2023-01-30T22:37:48;8.30;57.90
44729;DHT22;30457;53.590;9.922;2023-01-30T22:42:14;8.20;57.80
44729;DHT22;30457;53.590;9.922;2023-01-30T22:46:40;8.20;57.90
44729;DHT22;30457;53.590;9.922;2023-01-30T22:51:18;8.20;57.80
44729;DHT22;30457;53.590;9.922;2023-01-30T22:55:44;8.20;57.70
44729;DHT22;30457;53.590;9.922;2023-01-30T23:00:10;8.20;57.70
44729;DHT22;30457;53.590;9.922;2023-01-30T23:04:36;8.10;57.90
44729;DHT22;30457;53.590;9.922;2023-01-30T23:09:03;8.10;57.90
44729;DHT22;30457;53.590;9.922;2023-01-30T23:13:30;8.10;58.00
44729;DHT22;30457;53.590;9.922;2023-01-30T23:17:55;8.00;58.10
44729;DHT22;30457;53.590;9.922;2023-01-30T23:22:39;8.00;58.00
44729;DHT22;30457;53.590;9.922;2023-01-30T23:27:05;8.00;58.30
44729;DHT22;30457;53.590;9.922;2023-01-30T23:31:31;8.00;58.30
44729;DHT22;30457;53.590;9.922;2023-01-30T23:36:00;8.00;58.40
44729;DHT22;30457;53.590;9.922;2023-01-30T23:40:26;8.00;58.50
44729;DHT22;30457;53.590;9.922;2023-01-30T23:44:51;8.00;58.70
44729;DHT22;30457;53.590;9.922;2023-01-30T23:49:17;8.00;59.40
44729;DHT22;30457;53.590;9.922;2023-01-30T23:53:43;8.10;59.00
44729;DHT22;30457;53.590;9.922;2023-01-30T23:58:09;8.10;59.10
